Main page
METAR-TAF:

METAR-TAF

Airports :

Parnaíba-Prefeito Dr. João Silva Filho International Airport

Parnaíba, Piauí, Brazil

latitude: 02-55S, longitude: 041-45W, elevation: 5 m

Current weather observation

The report was made 1 hour and 0 minutes ago, at 20:45 UTC
Wind 7 kt from the Northeast
Temperature 30°C
Humidity 79%
Pressure 1008 hPa
Visibility 10 km or more
Few clouds at a height of 2000 ft

METAR: SBPB 282045Z 05007KT 9999 FEW020 30/26 Q1008

Time: 18:45 (21:45 UTC)

Forecast

The report was made 6 hours and 45 minutes ago, at 15:00 UTC
Forecast valid from 28 at 18 UTC to 29 at 06 UTC
Wind 8 kt from the East/Northeast
Visibility 10 km or more
Scattered clouds at a height of 2000 ft
Few clouds at a height of 2500 ft, Towering cumulus.
Becoming
from 28 at 20 UTC to 28 at 22 UTC
Scattered clouds at a height of 1700 ft

TAF: SBPB 281500Z 2818/2906 06008KT 9999 SCT020 FEW025TCU TX31/2818Z TN25/2906Z BECMG 2820/2822 SCT017 RMK PCQ

Weather observations and forecasts of more than 4000 airports (METAR and TAF reports).

The available stations are represented by yellow and red dots on the map.

Hover mouse over dot to see the name of the station.

Then click to see weather observations and forecasts.

To change the map : click on the green buttons with a black cross to zoom in, on the green button with a dash to zoom out, or on the green arrows for adjacent maps.


METAR-TAF: